sensor_id;sensor_type;location;lat;lon;timestamp;P1;durP1;ratioP1;P2;durP2;ratioP2
31990;SDS011;18508;49.386;8.370;2024-03-22T00:00:36;13.93;;;7.25;;
31990;SDS011;18508;49.386;8.370;2024-03-22T00:03:03;16.23;;;8.15;;
31990;SDS011;18508;49.386;8.370;2024-03-22T00:05:31;17.20;;;8.23;;
31990;SDS011;18508;49.386;8.370;2024-03-22T00:07:57;19.75;;;10.15;;
31990;SDS011;18508;49.386;8.370;2024-03-22T00:10:24;20.15;;;10.18;;
31990;SDS011;18508;49.386;8.370;2024-03-22T00:12:50;16.92;;;8.82;;
31990;SDS011;18508;49.386;8.370;2024-03-22T00:15:17;14.45;;;8.48;;
31990;SDS011;18508;49.386;8.370;2024-03-22T00:17:44;17.48;;;9.60;;
31990;SDS011;18508;49.386;8.370;2024-03-22T00:20:13;18.98;;;9.52;;
31990;SDS011;18508;49.386;8.370;2024-03-22T00:22:39;16.98;;;9.57;;
31990;SDS011;18508;49.386;8.370;2024-03-22T00:25:06;16.17;;;8.27;;
31990;SDS011;18508;49.386;8.370;2024-03-22T00:27:33;16.55;;;9.32;;
31990;SDS011;18508;49.386;8.370;2024-03-22T00:30:00;18.48;;;10.05;;
31990;SDS011;18508;49.386;8.370;2024-03-22T00:32:26;17.92;;;9.57;;
31990;SDS011;18508;49.386;8.370;2024-03-22T00:34:53;20.20;;;10.05;;
31990;SDS011;18508;49.386;8.370;2024-03-22T00:37:21;17.50;;;9.50;;
31990;SDS011;18508;49.386;8.370;2024-03-22T00:39:48;19.67;;;10.45;;
31990;SDS011;18508;49.386;8.370;2024-03-22T00:42:14;21.17;;;9.48;;
31990;SDS011;18508;49.386;8.370;2024-03-22T00:44:41;21.38;;;10.88;;
31990;SDS011;18508;49.386;8.370;2024-03-22T00:47:07;22.50;;;11.00;;
31990;SDS011;18508;49.386;8.370;2024-03-22T00:49:34;16.00;;;9.82;;
31990;SDS011;18508;49.386;8.370;2024-03-22T00:52:00;58.28;;;13.80;;
31990;SDS011;18508;49.386;8.370;2024-03-22T00:54:29;22.73;;;11.90;;
31990;SDS011;18508;49.386;8.370;2024-03-22T00:56:55;18.60;;;11.18;;
31990;SDS011;18508;49.386;8.370;2024-03-22T00:59:22;20.40;;;11.20;;
31990;SDS011;18508;49.386;8.370;2024-03-22T01:01:48;17.50;;;10.45;;
31990;SDS011;18508;49.386;8.370;2024-03-22T01:04:15;18.35;;;10.63;;
31990;SDS011;18508;49.386;8.370;2024-03-22T01:06:41;19.20;;;9.93;;
31990;SDS011;18508;49.386;8.370;2024-03-22T01:09:08;17.13;;;9.77;;
31990;SDS011;18508;49.386;8.370;2024-03-22T01:11:36;18.58;;;10.95;;
31990;SDS011;18508;49.386;8.370;2024-03-22T01:14:03;17.33;;;10.05;;
31990;SDS011;18508;49.386;8.370;2024-03-22T01:16:29;17.52;;;10.90;;
31990;SDS011;18508;49.386;8.370;2024-03-22T01:18:56;18.55;;;9.40;;
31990;SDS011;18508;49.386;8.370;2024-03-22T01:21:22;19.15;;;10.18;;
31990;SDS011;18508;49.386;8.370;2024-03-22T01:23:51;22.02;;;12.05;;
31990;SDS011;18508;49.386;8.370;2024-03-22T01:26:17;19.63;;;10.48;;
31990;SDS011;18508;49.386;8.370;2024-03-22T01:28:45;19.23;;;11.75;;
31990;SDS011;18508;49.386;8.370;2024-03-22T01:31:11;18.52;;;9.52;;
31990;SDS011;18508;49.386;8.370;2024-03-22T01:33:38;17.55;;;10.65;;
31990;SDS011;18508;49.386;8.370;2024-03-22T01:36:05;21.88;;;11.95;;
31990;SDS011;18508;49.386;8.370;2024-03-22T01:38:32;23.00;;;11.75;;
31990;SDS011;18508;49.386;8.370;2024-03-22T01:40:58;18.50;;;11.45;;
31990;SDS011;18508;49.386;8.370;2024-03-22T01:43:25;22.30;;;10.45;;
31990;SDS011;18508;49.386;8.370;2024-03-22T01:45:52;21.35;;;11.50;;
31990;SDS011;18508;49.386;8.370;2024-03-22T01:48:20;22.50;;;10.88;;
31990;SDS011;18508;49.386;8.370;2024-03-22T01:50:46;20.13;;;10.95;;
31990;SDS011;18508;49.386;8.370;2024-03-22T01:53:13;22.55;;;11.57;;
31990;SDS011;18508;49.386;8.370;2024-03-22T01:55:40;19.83;;;11.15;;
31990;SDS011;18508;49.386;8.370;2024-03-22T01:58:07;22.63;;;11.80;;
31990;SDS011;18508;49.386;8.370;2024-03-22T02:00:33;21.83;;;11.88;;
31990;SDS011;18508;49.386;8.370;2024-03-22T02:03:02;21.55;;;11.18;;
31990;SDS011;18508;49.386;8.370;2024-03-22T02:05:28;26.45;;;14.48;;
31990;SDS011;18508;49.386;8.370;2024-03-22T02:07:55;25.38;;;14.18;;
31990;SDS011;18508;49.386;8.370;2024-03-22T02:10:22;21.15;;;12.25;;
31990;SDS011;18508;49.386;8.370;2024-03-22T02:12:49;22.38;;;12.07;;
31990;SDS011;18508;49.386;8.370;2024-03-22T02:15:15;28.05;;;12.85;;
31990;SDS011;18508;49.386;8.370;2024-03-22T02:17:42;23.50;;;12.38;;
31990;SDS011;18508;49.386;8.370;2024-03-22T02:20:10;23.27;;;11.93;;
31990;SDS011;18508;49.386;8.370;2024-03-22T02:22:37;25.48;;;12.73;;
31990;SDS011;18508;49.386;8.370;2024-03-22T02:25:05;24.00;;;12.35;;
31990;SDS011;18508;49.386;8.370;2024-03-22T02:27:33;23.15;;;11.65;;
31990;SDS011;18508;49.386;8.370;2024-03-22T02:29:59;20.33;;;10.82;;
31990;SDS011;18508;49.386;8.370;2024-03-22T02:32:27;24.95;;;11.52;;
31990;SDS011;18508;49.386;8.370;2024-03-22T02:34:53;23.73;;;11.48;;
31990;SDS011;18508;49.386;8.370;2024-03-22T02:37:20;22.48;;;12.35;;
31990;SDS011;18508;49.386;8.370;2024-03-22T02:39:46;23.50;;;12.13;;
31990;SDS011;18508;49.386;8.370;2024-03-22T02:42:14;21.55;;;11.05;;
31990;SDS011;18508;49.386;8.370;2024-03-22T02:44:40;18.90;;;10.55;;
31990;SDS011;18508;49.386;8.370;2024-03-22T02:47:09;19.13;;;10.02;;
31990;SDS011;18508;49.386;8.370;2024-03-22T02:49:35;21.23;;;11.20;;
31990;SDS011;18508;49.386;8.370;2024-03-22T02:52:02;23.05;;;11.57;;
31990;SDS011;18508;49.386;8.370;2024-03-22T02:54:29;18.98;;;10.68;;
31990;SDS011;18508;49.386;8.370;2024-03-22T02:56:56;17.60;;;10.07;;
31990;SDS011;18508;49.386;8.370;2024-03-22T02:59:26;19.83;;;11.23;;
31990;SDS011;18508;49.386;8.370;2024-03-22T03:01:53;18.55;;;10.73;;
31990;SDS011;18508;49.386;8.370;2024-03-22T03:04:19;21.52;;;10.38;;
31990;SDS011;18508;49.386;8.370;2024-03-22T03:06:47;20.95;;;10.40;;
31990;SDS011;18508;49.386;8.370;2024-03-22T03:09:13;19.45;;;10.90;;
31990;SDS011;18508;49.386;8.370;2024-03-22T03:11:40;20.67;;;10.75;;
31990;SDS011;18508;49.386;8.370;2024-03-22T03:14:06;20.83;;;10.57;;
31990;SDS011;18508;49.386;8.370;2024-03-22T03:16:35;19.73;;;10.15;;
31990;SDS011;18508;49.386;8.370;2024-03-22T03:19:02;21.00;;;10.77;;
31990;SDS011;18508;49.386;8.370;2024-03-22T03:21:28;19.38;;;10.40;;
31990;SDS011;18508;49.386;8.370;2024-03-22T03:23:55;20.17;;;10.93;;
31990;SDS011;18508;49.386;8.370;2024-03-22T03:26:21;16.60;;;9.82;;
31990;SDS011;18508;49.386;8.370;2024-03-22T03:28:48;21.70;;;9.55;;
31990;SDS011;18508;49.386;8.370;2024-03-22T03:31:14;14.75;;;8.82;;
31990;SDS011;18508;49.386;8.370;2024-03-22T03:33:43;21.42;;;9.10;;
31990;SDS011;18508;49.386;8.370;2024-03-22T03:36:09;16.52;;;8.65;;
31990;SDS011;18508;49.386;8.370;2024-03-22T03:38:36;15.57;;;8.45;;
31990;SDS011;18508;49.386;8.370;2024-03-22T03:41:03;15.55;;;9.10;;
31990;SDS011;18508;49.386;8.370;2024-03-22T03:43:30;18.15;;;8.32;;
31990;SDS011;18508;49.386;8.370;2024-03-22T03:45:56;17.33;;;9.65;;
31990;SDS011;18508;49.386;8.370;2024-03-22T03:48:23;15.35;;;8.55;;
31990;SDS011;18508;49.386;8.370;2024-03-22T03:50:54;17.33;;;8.95;;
31990;SDS011;18508;49.386;8.370;2024-03-22T03:53:24;17.95;;;9.45;;
31990;SDS011;18508;49.386;8.370;2024-03-22T03:55:50;16.73;;;8.88;;
31990;SDS011;18508;49.386;8.370;2024-03-22T03:58:17;15.77;;;9.32;;
31990;SDS011;18508;49.386;8.370;2024-03-22T04:00:43;14.77;;;8.35;;
31990;SDS011;18508;49.386;8.370;2024-03-22T04:03:10;17.70;;;9.88;;
31990;SDS011;18508;49.386;8.370;2024-03-22T04:05:36;23.42;;;10.23;;
31990;SDS011;18508;49.386;8.370;2024-03-22T04:08:05;19.52;;;9.93;;
31990;SDS011;18508;49.386;8.370;2024-03-22T04:10:31;17.77;;;10.00;;
31990;SDS011;18508;49.386;8.370;2024-03-22T04:12:58;16.42;;;9.30;;
31990;SDS011;18508;49.386;8.370;2024-03-22T04:15:24;20.23;;;10.70;;
31990;SDS011;18508;49.386;8.370;2024-03-22T04:17:51;21.42;;;11.48;;
31990;SDS011;18508;49.386;8.370;2024-03-22T04:20:18;18.58;;;10.75;;
31990;SDS011;18508;49.386;8.370;2024-03-22T04:22:45;22.77;;;11.52;;
31990;SDS011;18508;49.386;8.370;2024-03-22T04:25:15;25.50;;;11.68;;
31990;SDS011;18508;49.386;8.370;2024-03-22T04:27:42;23.63;;;11.55;;
31990;SDS011;18508;49.386;8.370;2024-03-22T04:30:09;21.15;;;11.85;;
31990;SDS011;18508;49.386;8.370;2024-03-22T04:32:37;21.73;;;12.43;;
31990;SDS011;18508;49.386;8.370;2024-03-22T04:35:03;21.23;;;12.15;;
31990;SDS011;18508;49.386;8.370;2024-03-22T04:37:31;21.00;;;11.85;;
31990;SDS011;18508;49.386;8.370;2024-03-22T04:39:58;23.25;;;12.68;;
31990;SDS011;18508;49.386;8.370;2024-03-22T04:42:26;22.52;;;12.70;;
31990;SDS011;18508;49.386;8.370;2024-03-22T04:44:54;22.17;;;11.85;;
31990;SDS011;18508;49.386;8.370;2024-03-22T04:47:21;21.83;;;11.70;;
31990;SDS011;18508;49.386;8.370;2024-03-22T04:49:47;21.48;;;11.45;;
31990;SDS011;18508;49.386;8.370;2024-03-22T04:52:14;24.50;;;12.38;;
31990;SDS011;18508;49.386;8.370;2024-03-22T04:54:40;26.65;;;13.38;;
31990;SDS011;18508;49.386;8.370;2024-03-22T04:57:07;20.40;;;10.80;;
31990;SDS011;18508;49.386;8.370;2024-03-22T04:59:35;22.40;;;11.80;;
31990;SDS011;18508;49.386;8.370;2024-03-22T05:02:02;21.95;;;12.23;;
31990;SDS011;18508;49.386;8.370;2024-03-22T05:04:28;22.33;;;12.20;;
31990;SDS011;18508;49.386;8.370;2024-03-22T05:06:55;24.98;;;13.40;;
31990;SDS011;18508;49.386;8.370;2024-03-22T05:09:21;23.70;;;12.80;;
31990;SDS011;18508;49.386;8.370;2024-03-22T05:11:48;24.65;;;12.32;;
31990;SDS011;18508;49.386;8.370;2024-03-22T05:14:16;27.33;;;14.25;;
31990;SDS011;18508;49.386;8.370;2024-03-22T05:16:45;34.63;;;17.45;;
31990;SDS011;18508;49.386;8.370;2024-03-22T05:19:11;28.67;;;14.15;;
31990;SDS011;18508;49.386;8.370;2024-03-22T05:21:38;24.55;;;13.07;;
31990;SDS011;18508;49.386;8.370;2024-03-22T05:24:05;21.48;;;12.35;;
31990;SDS011;18508;49.386;8.370;2024-03-22T05:26:32;27.02;;;12.95;;
31990;SDS011;18508;49.386;8.370;2024-03-22T05:29:01;25.55;;;13.23;;
31990;SDS011;18508;49.386;8.370;2024-03-22T05:31:29;26.27;;;13.90;;
31990;SDS011;18508;49.386;8.370;2024-03-22T05:33:57;25.65;;;13.48;;
31990;SDS011;18508;49.386;8.370;2024-03-22T05:36:25;24.27;;;12.75;;
31990;SDS011;18508;49.386;8.370;2024-03-22T05:38:51;24.20;;;13.65;;
31990;SDS011;18508;49.386;8.370;2024-03-22T05:41:18;26.20;;;14.38;;
31990;SDS011;18508;49.386;8.370;2024-03-22T05:43:44;24.15;;;13.85;;
31990;SDS011;18508;49.386;8.370;2024-03-22T05:46:11;29.13;;;14.40;;
31990;SDS011;18508;49.386;8.370;2024-03-22T05:48:39;22.90;;;12.85;;
31990;SDS011;18508;49.386;8.370;2024-03-22T05:51:07;26.98;;;14.60;;
31990;SDS011;18508;49.386;8.370;2024-03-22T05:53:34;26.67;;;13.70;;
31990;SDS011;18508;49.386;8.370;2024-03-22T05:56:00;26.90;;;14.20;;
31990;SDS011;18508;49.386;8.370;2024-03-22T05:58:27;29.75;;;15.20;;
31990;SDS011;18508;49.386;8.370;2024-03-22T06:00:53;28.50;;;13.45;;
31990;SDS011;18508;49.386;8.370;2024-03-22T06:03:21;23.23;;;12.70;;
31990;SDS011;18508;49.386;8.370;2024-03-22T06:05:47;23.50;;;12.82;;
31990;SDS011;18508;49.386;8.370;2024-03-22T06:08:16;26.73;;;14.80;;
31990;SDS011;18508;49.386;8.370;2024-03-22T06:10:44;25.48;;;13.90;;
31990;SDS011;18508;49.386;8.370;2024-03-22T06:13:11;23.95;;;13.73;;
31990;SDS011;18508;49.386;8.370;2024-03-22T06:15:37;21.92;;;12.18;;
31990;SDS011;18508;49.386;8.370;2024-03-22T06:18:04;22.08;;;12.45;;
31990;SDS011;18508;49.386;8.370;2024-03-22T06:20:31;19.60;;;11.48;;
31990;SDS011;18508;49.386;8.370;2024-03-22T06:22:58;23.08;;;12.18;;
31990;SDS011;18508;49.386;8.370;2024-03-22T06:25:25;24.13;;;12.73;;
31990;SDS011;18508;49.386;8.370;2024-03-22T06:27:52;22.70;;;12.48;;
31990;SDS011;18508;49.386;8.370;2024-03-22T06:30:18;21.20;;;12.02;;
31990;SDS011;18508;49.386;8.370;2024-03-22T06:32:46;21.92;;;12.23;;
31990;SDS011;18508;49.386;8.370;2024-03-22T06:35:12;21.25;;;11.77;;
31990;SDS011;18508;49.386;8.370;2024-03-22T06:37:39;21.13;;;11.07;;
31990;SDS011;18508;49.386;8.370;2024-03-22T06:40:06;18.95;;;11.20;;
31990;SDS011;18508;49.386;8.370;2024-03-22T06:42:35;18.35;;;10.35;;
31990;SDS011;18508;49.386;8.370;2024-03-22T06:45:01;18.20;;;10.90;;
31990;SDS011;18508;49.386;8.370;2024-03-22T06:47:29;22.08;;;10.68;;
31990;SDS011;18508;49.386;8.370;2024-03-22T06:49:55;17.05;;;9.52;;
31990;SDS011;18508;49.386;8.370;2024-03-22T06:52:23;19.23;;;10.10;;
31990;SDS011;18508;49.386;8.370;2024-03-22T06:54:49;19.33;;;10.43;;
31990;SDS011;18508;49.386;8.370;2024-03-22T06:57:17;16.40;;;8.77;;
31990;SDS011;18508;49.386;8.370;2024-03-22T06:59:44;16.25;;;8.75;;
31990;SDS011;18508;49.386;8.370;2024-03-22T07:02:12;15.43;;;8.20;;
31990;SDS011;18508;49.386;8.370;2024-03-22T07:04:39;17.92;;;8.90;;
31990;SDS011;18508;49.386;8.370;2024-03-22T07:07:07;17.67;;;8.23;;
31990;SDS011;18508;49.386;8.370;2024-03-22T07:09:33;14.38;;;8.10;;
31990;SDS011;18508;49.386;8.370;2024-03-22T07:12:01;14.45;;;8.18;;
31990;SDS011;18508;49.386;8.370;2024-03-22T07:14:27;19.30;;;8.10;;
31990;SDS011;18508;49.386;8.370;2024-03-22T07:16:55;15.32;;;7.28;;
31990;SDS011;18508;49.386;8.370;2024-03-22T07:19:22;14.00;;;6.82;;
31990;SDS011;18508;49.386;8.370;2024-03-22T07:21:51;11.85;;;7.22;;
31990;SDS011;18508;49.386;8.370;2024-03-22T07:24:17;13.48;;;7.03;;
31990;SDS011;18508;49.386;8.370;2024-03-22T07:26:44;14.10;;;6.30;;
31990;SDS011;18508;49.386;8.370;2024-03-22T07:29:13;12.13;;;6.43;;
31990;SDS011;18508;49.386;8.370;2024-03-22T07:31:41;12.43;;;6.32;;
31990;SDS011;18508;49.386;8.370;2024-03-22T07:34:08;10.77;;;6.65;;
31990;SDS011;18508;49.386;8.370;2024-03-22T07:36:37;8.93;;;5.72;;
31990;SDS011;18508;49.386;8.370;2024-03-22T07:39:03;12.20;;;6.22;;
31990;SDS011;18508;49.386;8.370;2024-03-22T07:41:31;10.27;;;6.20;;
31990;SDS011;18508;49.386;8.370;2024-03-22T07:43:58;10.63;;;5.55;;
31990;SDS011;18508;49.386;8.370;2024-03-22T07:46:25;8.48;;;4.97;;
31990;SDS011;18508;49.386;8.370;2024-03-22T07:48:52;9.45;;;5.68;;
31990;SDS011;18508;49.386;8.370;2024-03-22T07:51:20;9.23;;;5.55;;
31990;SDS011;18508;49.386;8.370;2024-03-22T07:53:47;8.15;;;5.20;;
31990;SDS011;18508;49.386;8.370;2024-03-22T07:56:14;7.95;;;4.97;;
31990;SDS011;18508;49.386;8.370;2024-03-22T07:58:41;7.80;;;4.78;;
31990;SDS011;18508;49.386;8.370;2024-03-22T08:01:08;9.68;;;5.20;;
31990;SDS011;18508;49.386;8.370;2024-03-22T08:03:34;8.73;;;5.45;;
31990;SDS011;18508;49.386;8.370;2024-03-22T08:06:02;7.95;;;4.63;;
31990;SDS011;18508;49.386;8.370;2024-03-22T08:08:30;8.35;;;4.55;;
31990;SDS011;18508;49.386;8.370;2024-03-22T08:10:58;7.53;;;4.32;;
31990;SDS011;18508;49.386;8.370;2024-03-22T08:13:24;9.20;;;4.20;;
31990;SDS011;18508;49.386;8.370;2024-03-22T08:15:51;8.80;;;4.65;;
31990;SDS011;18508;49.386;8.370;2024-03-22T08:18:18;11.55;;;5.03;;
31990;SDS011;18508;49.386;8.370;2024-03-22T08:20:45;7.82;;;4.20;;
31990;SDS011;18508;49.386;8.370;2024-03-22T08:23:16;7.28;;;4.00;;
31990;SDS011;18508;49.386;8.370;2024-03-22T08:25:46;6.68;;;4.10;;
31990;SDS011;18508;49.386;8.370;2024-03-22T08:28:13;8.40;;;4.20;;
31990;SDS011;18508;49.386;8.370;2024-03-22T08:30:40;7.75;;;4.30;;
31990;SDS011;18508;49.386;8.370;2024-03-22T08:33:07;7.88;;;4.25;;
31990;SDS011;18508;49.386;8.370;2024-03-22T08:35:34;7.28;;;4.72;;
31990;SDS011;18508;49.386;8.370;2024-03-22T08:38:00;8.88;;;4.38;;
31990;SDS011;18508;49.386;8.370;2024-03-22T08:40:28;9.98;;;4.63;;
31990;SDS011;18508;49.386;8.370;2024-03-22T08:42:55;9.00;;;4.63;;
31990;SDS011;18508;49.386;8.370;2024-03-22T08:45:23;8.75;;;4.35;;
31990;SDS011;18508;49.386;8.370;2024-03-22T08:47:49;8.25;;;4.35;;
31990;SDS011;18508;49.386;8.370;2024-03-22T08:50:16;6.57;;;4.35;;
31990;SDS011;18508;49.386;8.370;2024-03-22T08:52:42;9.07;;;4.70;;
31990;SDS011;18508;49.386;8.370;2024-03-22T08:55:09;8.38;;;4.43;;
31990;SDS011;18508;49.386;8.370;2024-03-22T08:57:36;11.25;;;4.60;;
31990;SDS011;18508;49.386;8.370;2024-03-22T09:00:05;8.68;;;4.78;;
31990;SDS011;18508;49.386;8.370;2024-03-22T09:02:33;9.25;;;4.72;;
31990;SDS011;18508;49.386;8.370;2024-03-22T09:05:00;7.40;;;4.32;;
31990;SDS011;18508;49.386;8.370;2024-03-22T09:07:27;9.68;;;4.40;;
31990;SDS011;18508;49.386;8.370;2024-03-22T09:09:54;10.05;;;4.78;;
31990;SDS011;18508;49.386;8.370;2024-03-22T09:12:20;10.80;;;4.40;;
31990;SDS011;18508;49.386;8.370;2024-03-22T09:14:47;8.18;;;4.55;;
31990;SDS011;18508;49.386;8.370;2024-03-22T09:17:14;8.98;;;4.43;;
31990;SDS011;18508;49.386;8.370;2024-03-22T09:19:41;8.32;;;5.28;;
31990;SDS011;18508;49.386;8.370;2024-03-22T09:22:08;7.53;;;4.45;;
31990;SDS011;18508;49.386;8.370;2024-03-22T09:24:35;9.93;;;4.70;;
31990;SDS011;18508;49.386;8.370;2024-03-22T09:27:01;9.77;;;5.15;;
31990;SDS011;18508;49.386;8.370;2024-03-22T09:29:34;9.07;;;4.45;;
31990;SDS011;18508;49.386;8.370;2024-03-22T09:32:00;8.77;;;4.80;;
31990;SDS011;18508;49.386;8.370;2024-03-22T09:34:28;7.15;;;4.60;;
31990;SDS011;18508;49.386;8.370;2024-03-22T09:36:55;6.80;;;4.30;;
31990;SDS011;18508;49.386;8.370;2024-03-22T09:39:22;10.55;;;4.63;;
31990;SDS011;18508;49.386;8.370;2024-03-22T09:41:49;10.20;;;5.20;;
31990;SDS011;18508;49.386;8.370;2024-03-22T09:44:18;8.63;;;4.72;;
31990;SDS011;18508;49.386;8.370;2024-03-22T09:46:45;8.05;;;4.60;;
31990;SDS011;18508;49.386;8.370;2024-03-22T09:49:13;10.32;;;4.38;;
31990;SDS011;18508;49.386;8.370;2024-03-22T09:51:42;9.43;;;4.63;;
31990;SDS011;18508;49.386;8.370;2024-03-22T09:54:10;8.10;;;4.43;;
31990;SDS011;18508;49.386;8.370;2024-03-22T09:56:37;8.70;;;4.80;;
31990;SDS011;18508;49.386;8.370;2024-03-22T09:59:05;9.27;;;4.18;;
31990;SDS011;18508;49.386;8.370;2024-03-22T10:01:32;8.82;;;3.95;;
31990;SDS011;18508;49.386;8.370;2024-03-22T10:04:00;10.90;;;4.00;;
31990;SDS011;18508;49.386;8.370;2024-03-22T10:06:28;7.03;;;3.90;;
31990;SDS011;18508;49.386;8.370;2024-03-22T10:08:59;9.60;;;4.28;;
31990;SDS011;18508;49.386;8.370;2024-03-22T10:11:26;8.52;;;4.07;;
31990;SDS011;18508;49.386;8.370;2024-03-22T10:13:54;9.32;;;4.18;;
31990;SDS011;18508;49.386;8.370;2024-03-22T10:16:25;8.77;;;4.80;;
31990;SDS011;18508;49.386;8.370;2024-03-22T10:18:52;8.23;;;4.63;;
31990;SDS011;18508;49.386;8.370;2024-03-22T10:21:19;9.32;;;4.45;;
31990;SDS011;18508;49.386;8.370;2024-03-22T10:23:46;7.90;;;4.40;;
31990;SDS011;18508;49.386;8.370;2024-03-22T10:26:15;8.45;;;4.88;;
31990;SDS011;18508;49.386;8.370;2024-03-22T10:28:45;10.02;;;4.25;;
31990;SDS011;18508;49.386;8.370;2024-03-22T10:31:12;8.25;;;4.78;;
31990;SDS011;18508;49.386;8.370;2024-03-22T10:33:40;9.15;;;4.57;;
31990;SDS011;18508;49.386;8.370;2024-03-22T10:36:06;10.25;;;4.35;;
31990;SDS011;18508;49.386;8.370;2024-03-22T10:38:34;9.93;;;4.82;;
31990;SDS011;18508;49.386;8.370;2024-03-22T10:41:03;7.63;;;4.13;;
31990;SDS011;18508;49.386;8.370;2024-03-22T10:43:32;7.20;;;3.65;;
31990;SDS011;18508;49.386;8.370;2024-03-22T10:46:00;7.15;;;4.18;;
31990;SDS011;18508;49.386;8.370;2024-03-22T10:48:31;7.25;;;3.90;;
31990;SDS011;18508;49.386;8.370;2024-03-22T10:50:59;6.88;;;3.85;;
31990;SDS011;18508;49.386;8.370;2024-03-22T10:53:28;7.68;;;3.55;;
31990;SDS011;18508;49.386;8.370;2024-03-22T10:55:57;8.20;;;3.55;;
31990;SDS011;18508;49.386;8.370;2024-03-22T10:58:27;6.80;;;3.38;;
31990;SDS011;18508;49.386;8.370;2024-03-22T11:00:55;7.18;;;3.35;;
31990;SDS011;18508;49.386;8.370;2024-03-22T11:03:24;6.07;;;3.40;;
31990;SDS011;18508;49.386;8.370;2024-03-22T11:05:53;7.28;;;3.78;;
31990;SDS011;18508;49.386;8.370;2024-03-22T11:08:25;8.88;;;3.20;;
31990;SDS011;18508;49.386;8.370;2024-03-22T11:10:51;6.10;;;3.13;;
31990;SDS011;18508;49.386;8.370;2024-03-22T11:13:19;7.28;;;3.03;;
31990;SDS011;18508;49.386;8.370;2024-03-22T11:15:46;5.03;;;3.25;;
31990;SDS011;18508;49.386;8.370;2024-03-22T11:18:15;11.02;;;3.78;;
31990;SDS011;18508;49.386;8.370;2024-03-22T11:20:42;6.70;;;3.58;;
31990;SDS011;18508;49.386;8.370;2024-03-22T11:23:10;7.78;;;2.97;;
31990;SDS011;18508;49.386;8.370;2024-03-22T11:25:36;8.07;;;3.97;;
31990;SDS011;18508;49.386;8.370;2024-03-22T11:28:10;6.32;;;3.20;;
31990;SDS011;18508;49.386;8.370;2024-03-22T11:30:37;4.82;;;3.38;;
31990;SDS011;18508;49.386;8.370;2024-03-22T11:33:04;9.57;;;3.60;;
31990;SDS011;18508;49.386;8.370;2024-03-22T11:35:32;6.55;;;3.13;;
31990;SDS011;18508;49.386;8.370;2024-03-22T11:38:00;4.30;;;2.40;;
31990;SDS011;18508;49.386;8.370;2024-03-22T11:40:26;4.05;;;2.85;;
31990;SDS011;18508;49.386;8.370;2024-03-22T11:42:55;4.93;;;2.58;;
31990;SDS011;18508;49.386;8.370;2024-03-22T11:45:22;7.47;;;2.83;;
31990;SDS011;18508;49.386;8.370;2024-03-22T11:47:51;5.88;;;2.60;;
31990;SDS011;18508;49.386;8.370;2024-03-22T11:50:18;6.15;;;2.55;;
31990;SDS011;18508;49.386;8.370;2024-03-22T11:52:47;6.38;;;3.05;;
31990;SDS011;18508;49.386;8.370;2024-03-22T11:55:14;4.72;;;2.80;;
31990;SDS011;18508;49.386;8.370;2024-03-22T11:57:41;5.88;;;2.67;;
31990;SDS011;18508;49.386;8.370;2024-03-22T12:00:13;4.93;;;3.20;;
31990;SDS011;18508;49.386;8.370;2024-03-22T12:02:41;6.70;;;2.95;;
31990;SDS011;18508;49.386;8.370;2024-03-22T12:05:07;7.18;;;2.63;;
31990;SDS011;18508;49.386;8.370;2024-03-22T12:07:36;4.38;;;2.63;;
31990;SDS011;18508;49.386;8.370;2024-03-22T12:10:04;7.38;;;2.67;;
31990;SDS011;18508;49.386;8.370;2024-03-22T12:12:32;8.00;;;4.40;;
31990;SDS011;18508;49.386;8.370;2024-03-22T12:14:58;11.05;;;6.47;;
31990;SDS011;18508;49.386;8.370;2024-03-22T12:17:25;7.65;;;3.85;;
31990;SDS011;18508;49.386;8.370;2024-03-22T12:19:51;4.40;;;3.05;;
31990;SDS011;18508;49.386;8.370;2024-03-22T12:22:18;5.63;;;3.60;;
31990;SDS011;18508;49.386;8.370;2024-03-22T12:24:45;5.95;;;3.35;;
31990;SDS011;18508;49.386;8.370;2024-03-22T12:27:13;7.55;;;3.67;;
31990;SDS011;18508;49.386;8.370;2024-03-22T12:29:40;5.88;;;3.53;;
31990;SDS011;18508;49.386;8.370;2024-03-22T12:32:07;6.95;;;3.22;;
31990;SDS011;18508;49.386;8.370;2024-03-22T12:34:33;6.40;;;3.95;;
31990;SDS011;18508;49.386;8.370;2024-03-22T12:37:00;8.20;;;3.17;;
31990;SDS011;18508;49.386;8.370;2024-03-22T12:39:27;7.97;;;4.00;;
31990;SDS011;18508;49.386;8.370;2024-03-22T12:41:55;5.63;;;3.50;;
31990;SDS011;18508;49.386;8.370;2024-03-22T12:44:22;6.05;;;3.42;;
31990;SDS011;18508;49.386;8.370;2024-03-22T12:46:50;6.72;;;3.33;;
31990;SDS011;18508;49.386;8.370;2024-03-22T12:49:16;7.68;;;4.00;;
31990;SDS011;18508;49.386;8.370;2024-03-22T12:51:44;8.25;;;3.97;;
31990;SDS011;18508;49.386;8.370;2024-03-22T12:54:10;7.75;;;4.10;;
31990;SDS011;18508;49.386;8.370;2024-03-22T12:56:39;7.60;;;3.90;;
31990;SDS011;18508;49.386;8.370;2024-03-22T12:59:05;9.23;;;3.42;;
31990;SDS011;18508;49.386;8.370;2024-03-22T13:01:34;7.22;;;3.22;;
31990;SDS011;18508;49.386;8.370;2024-03-22T13:04:02;10.85;;;5.40;;
31990;SDS011;18508;49.386;8.370;2024-03-22T13:06:29;5.50;;;3.53;;
31990;SDS011;18508;49.386;8.370;2024-03-22T13:08:55;9.18;;;5.63;;
31990;SDS011;18508;49.386;8.370;2024-03-22T13:11:22;11.80;;;5.35;;
31990;SDS011;18508;49.386;8.370;2024-03-22T13:13:48;5.80;;;3.60;;
31990;SDS011;18508;49.386;8.370;2024-03-22T13:16:15;5.63;;;3.22;;
31990;SDS011;18508;49.386;8.370;2024-03-22T13:18:43;4.53;;;2.92;;
31990;SDS011;18508;49.386;8.370;2024-03-22T13:21:10;6.05;;;3.33;;
31990;SDS011;18508;49.386;8.370;2024-03-22T13:23:36;6.88;;;3.50;;
31990;SDS011;18508;49.386;8.370;2024-03-22T13:26:04;10.95;;;4.07;;
31990;SDS011;18508;49.386;8.370;2024-03-22T13:28:30;7.80;;;4.10;;
31990;SDS011;18508;49.386;8.370;2024-03-22T13:31:00;10.13;;;5.22;;
31990;SDS011;18508;49.386;8.370;2024-03-22T13:33:28;8.38;;;4.82;;
31990;SDS011;18508;49.386;8.370;2024-03-22T13:35:57;10.45;;;5.20;;
31990;SDS011;18508;49.386;8.370;2024-03-22T13:38:23;15.00;;;5.90;;
31990;SDS011;18508;49.386;8.370;2024-03-22T13:40:53;10.10;;;5.10;;
31990;SDS011;18508;49.386;8.370;2024-03-22T13:43:19;8.60;;;4.90;;
31990;SDS011;18508;49.386;8.370;2024-03-22T13:45:47;6.35;;;4.18;;
31990;SDS011;18508;49.386;8.370;2024-03-22T13:48:16;7.32;;;4.25;;
31990;SDS011;18508;49.386;8.370;2024-03-22T13:50:43;6.13;;;4.32;;
31990;SDS011;18508;49.386;8.370;2024-03-22T13:53:10;8.15;;;4.68;;
31990;SDS011;18508;49.386;8.370;2024-03-22T13:55:37;9.35;;;4.10;;
31990;SDS011;18508;49.386;8.370;2024-03-22T13:58:03;6.72;;;3.97;;
31990;SDS011;18508;49.386;8.370;2024-03-22T14:00:30;12.18;;;4.72;;
31990;SDS011;18508;49.386;8.370;2024-03-22T14:02:57;8.52;;;4.90;;
31990;SDS011;18508;49.386;8.370;2024-03-22T14:05:24;8.43;;;5.05;;
31990;SDS011;18508;49.386;8.370;2024-03-22T14:07:52;6.65;;;4.15;;
31990;SDS011;18508;49.386;8.370;2024-03-22T14:10:20;7.78;;;4.85;;
31990;SDS011;18508;49.386;8.370;2024-03-22T14:12:48;6.70;;;4.30;;
31990;SDS011;18508;49.386;8.370;2024-03-22T14:15:16;7.47;;;4.32;;
31990;SDS011;18508;49.386;8.370;2024-03-22T14:17:42;6.63;;;4.75;;
31990;SDS011;18508;49.386;8.370;2024-03-22T14:20:09;10.77;;;4.40;;
31990;SDS011;18508;49.386;8.370;2024-03-22T14:22:37;8.98;;;4.15;;
31990;SDS011;18508;49.386;8.370;2024-03-22T14:25:05;7.28;;;4.68;;
31990;SDS011;18508;49.386;8.370;2024-03-22T14:27:34;9.82;;;5.00;;
31990;SDS011;18508;49.386;8.370;2024-03-22T14:30:01;11.43;;;5.47;;
31990;SDS011;18508;49.386;8.370;2024-03-22T14:32:31;8.30;;;4.78;;
31990;SDS011;18508;49.386;8.370;2024-03-22T14:34:58;12.25;;;5.47;;